createdAt,value
2022-10-16T00:01:09.132Z,93569.38
2022-10-16T00:02:40.685Z,93574.75
2022-10-16T00:04:12.518Z,93574.25
2022-10-16T00:05:44.188Z,93572.66
2022-10-16T00:07:15.767Z,93578.28
2022-10-16T00:08:47.395Z,93575.88
2022-10-16T00:10:19.081Z,93576.16
2022-10-16T00:11:50.704Z,93581.53
2022-10-16T00:13:22.424Z,93573.75
2022-10-16T00:14:54.406Z,93580.97
2022-10-16T00:16:26.282Z,93583.94
2022-10-16T00:17:58.049Z,93586.91
2022-10-16T00:19:29.615Z,93586.34
2022-10-16T00:21:05.254Z,93587.16
2022-10-16T00:22:36.845Z,93578.28
2022-10-16T00:24:10.054Z,93588.22
2022-10-16T00:25:41.938Z,93581.72
2022-10-16T00:27:13.564Z,93586.81
2022-10-16T00:28:48.563Z,93588.41
2022-10-16T00:30:21.028Z,93594.06
2022-10-16T00:31:52.609Z,93589.28
2022-10-16T00:33:24.346Z,93593.03
2022-10-16T00:34:55.863Z,93590.84
2022-10-16T00:36:27.638Z,93592.22
2022-10-16T00:37:59.295Z,93591.44
2022-10-16T00:39:30.962Z,93584.19
2022-10-16T00:41:02.517Z,93587.88
2022-10-16T00:42:34.200Z,93588.69
2022-10-16T00:44:25.803Z,93588.47
2022-10-16T00:45:57.352Z,93580.97
2022-10-16T00:47:30.413Z,93582.06
2022-10-16T00:49:04.614Z,93579.09
2022-10-16T00:50:36.306Z,93584.72
2022-10-16T00:52:08.101Z,93581.72
2022-10-16T00:53:40.287Z,93593.78
2022-10-16T00:55:12.712Z,93585.72
2022-10-16T00:56:44.767Z,93598.34
2022-10-16T00:58:16.481Z,93597.06
2022-10-16T00:59:48.272Z,93609.19
2022-10-16T01:01:20.024Z,93595.28
2022-10-16T01:02:55.467Z,93608.47
2022-10-16T01:04:27.252Z,93601.78
2022-10-16T01:06:16.191Z,93602.88
2022-10-16T01:07:54.840Z,93606.69
2022-10-16T01:09:38.030Z,93608.06
2022-10-16T01:11:21.128Z,93608.38
2022-10-16T01:12:55.662Z,93608.38
2022-10-16T01:14:35.960Z,93606.25
2022-10-16T01:16:09.313Z,93607.84
2022-10-16T01:17:40.991Z,93598.47
2022-10-16T01:19:27.639Z,93602.00
2022-10-16T01:21:03.496Z,93598.00
2022-10-16T01:22:39.129Z,93600.13
2022-10-16T01:24:28.638Z,93605.50
2022-10-16T01:26:00.551Z,93608.44
2022-10-16T01:27:32.219Z,93604.16
2022-10-16T01:29:24.369Z,93609.53
2022-10-16T01:30:57.046Z,93611.16
2022-10-16T01:32:39.105Z,93606.09
2022-10-16T01:34:13.836Z,93612.00
2022-10-16T01:36:04.620Z,93601.03
2022-10-16T01:37:38.093Z,93604.53
2022-10-16T01:39:10.854Z,93605.31
2022-10-16T01:40:43.100Z,93595.97
2022-10-16T01:42:18.559Z,93600.81
2022-10-16T01:43:51.110Z,93602.69
2022-10-16T01:45:22.777Z,93603.53
2022-10-16T01:46:54.448Z,93597.41
2022-10-16T01:48:26.512Z,93597.13
2022-10-16T01:49:58.907Z,93599.28
2022-10-16T01:51:30.922Z,93603.59
2022-10-16T01:53:02.728Z,93608.16
2022-10-16T01:54:35.088Z,93606.53
2022-10-16T01:56:08.041Z,93608.41
2022-10-16T01:57:40.017Z,93612.72
2022-10-16T01:59:12.460Z,93610.59
2022-10-16T02:00:45.198Z,93617.31
2022-10-16T02:02:17.130Z,93617.84
2022-10-16T02:03:49.606Z,93614.91
2022-10-16T02:05:23.706Z,93624.31
2022-10-16T02:06:55.338Z,93616.53
2022-10-16T02:08:29.393Z,93622.16
2022-10-16T02:10:01.362Z,93619.22
2022-10-16T02:11:33.071Z,93626.75
2022-10-16T02:13:07.503Z,93625.41
2022-10-16T02:14:39.092Z,93626.50
2022-10-16T02:16:13.929Z,93636.16
2022-10-16T02:17:45.691Z,93629.19
2022-10-16T02:19:17.987Z,93633.22
2022-10-16T02:20:49.589Z,93637.75
2022-10-16T02:22:40.027Z,93639.63
2022-10-16T02:24:20.698Z,93639.66
2022-10-16T02:25:53.681Z,93638.31
2022-10-16T02:27:25.308Z,93643.66
2022-10-16T02:28:57.974Z,93640.97
2022-10-16T02:30:40.791Z,93644.72
2022-10-16T02:32:12.352Z,93639.13
2022-10-16T02:33:43.953Z,93643.69
2022-10-16T02:35:16.684Z,93643.94
2022-10-16T02:36:48.390Z,93635.69
2022-10-16T02:38:19.940Z,93639.94
2022-10-16T02:39:51.442Z,93646.13
2022-10-16T02:41:23.299Z,93643.97
2022-10-16T02:42:55.197Z,93646.06
2022-10-16T02:44:26.808Z,93641.53
2022-10-16T02:45:58.397Z,93651.94
2022-10-16T02:47:29.964Z,93650.38
2022-10-16T02:49:01.584Z,93647.19
2022-10-16T02:50:33.199Z,93663.22
2022-10-16T02:52:04.883Z,93660.56
2022-10-16T02:53:37.340Z,93648.50
2022-10-16T02:55:09.085Z,93647.44
2022-10-16T02:56:40.701Z,93651.72
2022-10-16T02:58:12.310Z,93655.72
2022-10-16T02:59:43.909Z,93650.66
2022-10-16T03:01:17.953Z,93654.38
2022-10-16T03:02:49.696Z,93647.97
2022-10-16T03:04:21.241Z,93646.34
2022-10-16T03:05:53.246Z,93646.63
2022-10-16T03:07:25.021Z,93649.84
2022-10-16T03:08:56.875Z,93647.72
2022-10-16T03:10:29.183Z,93648.25
2022-10-16T03:12:00.841Z,93654.41
2022-10-16T03:13:32.677Z,93646.66
2022-10-16T03:15:04.640Z,93649.28
2022-10-16T03:16:36.184Z,93652.22
2022-10-16T03:18:07.859Z,93655.19
2022-10-16T03:19:39.386Z,93645.25
2022-10-16T03:21:10.980Z,93645.81
2022-10-16T03:22:42.496Z,93645.25
2022-10-16T03:24:14.143Z,93645.25
2022-10-16T03:25:47.300Z,93647.69
2022-10-16T03:27:19.977Z,93652.78
2022-10-16T03:28:51.500Z,93650.63
2022-10-16T03:30:23.134Z,93647.69
2022-10-16T03:31:54.877Z,93657.84
2022-10-16T03:33:26.896Z,93651.69
2022-10-16T03:34:58.456Z,93647.13
2022-10-16T03:36:29.943Z,93651.69
2022-10-16T03:38:02.027Z,93647.69
2022-10-16T03:39:33.514Z,93650.38
2022-10-16T03:41:05.374Z,93650.91
2022-10-16T03:42:36.969Z,93648.50
2022-10-16T03:44:08.612Z,93642.34
2022-10-16T03:45:40.989Z,93650.06
2022-10-16T03:47:12.594Z,93644.22
2022-10-16T03:48:44.288Z,93655.97
2022-10-16T03:50:15.951Z,93643.13
2022-10-16T03:51:47.581Z,93648.22
2022-10-16T03:53:19.236Z,93650.38
2022-10-16T03:54:50.834Z,93649.00
2022-10-16T03:56:22.496Z,93655.44
2022-10-16T03:57:54.167Z,93657.03
2022-10-16T03:59:25.733Z,93659.19
2022-10-16T04:00:57.574Z,93658.13
2022-10-16T04:02:29.225Z,93655.44
2022-10-16T04:04:00.997Z,93654.34
2022-10-16T04:05:32.506Z,93649.28
2022-10-16T04:07:04.068Z,93648.50
2022-10-16T04:08:37.657Z,93646.59
2022-10-16T04:10:09.627Z,93645.81
2022-10-16T04:11:41.306Z,93642.06
2022-10-16T04:13:13.086Z,93640.47
2022-10-16T04:14:44.691Z,93646.88
2022-10-16T04:16:16.190Z,93647.41
2022-10-16T04:17:48.064Z,93646.88
2022-10-16T04:19:19.714Z,93648.47
2022-10-16T04:20:51.208Z,93645.25
2022-10-16T04:22:22.840Z,93645.25
2022-10-16T04:23:54.490Z,93654.63
2022-10-16T04:25:26.111Z,93646.84
2022-10-16T04:26:57.937Z,93648.47
2022-10-16T04:28:29.690Z,93644.19
2022-10-16T04:30:01.533Z,93648.47
2022-10-16T04:31:33.184Z,93643.66
2022-10-16T04:33:04.751Z,93650.59
2022-10-16T04:34:36.374Z,93648.44
2022-10-16T04:36:08.004Z,93645.22
2022-10-16T04:37:39.628Z,93652.97
2022-10-16T04:39:11.170Z,93651.59
2022-10-16T04:40:43.403Z,93659.09
2022-10-16T04:42:14.937Z,93661.47
2022-10-16T04:43:46.700Z,93661.22
2022-10-16T04:45:18.376Z,93657.44
2022-10-16T04:46:51.834Z,93664.63
2022-10-16T04:48:23.462Z,93663.28
2022-10-16T04:49:55.682Z,93665.94
2022-10-16T04:51:28.781Z,93666.75
2022-10-16T04:53:00.628Z,93664.88
2022-10-16T04:54:32.412Z,93667.03
2022-10-16T04:56:04.093Z,93671.88
2022-10-16T04:57:35.752Z,93673.44
2022-10-16T04:59:07.451Z,93677.72
2022-10-16T05:00:40.141Z,93683.09
2022-10-16T05:02:11.786Z,93680.41
2022-10-16T05:03:43.930Z,93685.75
2022-10-16T05:05:15.921Z,93697.00
2022-10-16T05:06:48.750Z,93688.69
2022-10-16T05:08:20.549Z,93689.47
2022-10-16T05:09:52.151Z,93686.78
2022-10-16T05:11:23.760Z,93683.28
2022-10-16T05:12:55.990Z,93693.16
2022-10-16T05:14:27.735Z,93687.56
2022-10-16T05:16:00.595Z,93688.91
2022-10-16T05:17:32.176Z,93689.72
2022-10-16T05:19:26.316Z,93697.97
2022-10-16T05:20:55.486Z,93699.59
2022-10-16T05:22:27.271Z,93698.81
2022-10-16T05:23:58.868Z,93701.50
2022-10-16T05:25:30.523Z,93701.78
2022-10-16T05:27:02.182Z,93697.00
2022-10-16T05:28:33.883Z,93697.56
2022-10-16T05:30:08.565Z,93698.66
2022-10-16T05:31:41.599Z,93695.22
2022-10-16T05:33:13.426Z,93693.63
2022-10-16T05:34:45.590Z,93697.69
2022-10-16T05:36:17.875Z,93693.94
2022-10-16T05:37:49.521Z,93695.81
2022-10-16T05:39:21.272Z,93699.34
2022-10-16T05:40:53.728Z,93698.25
2022-10-16T05:42:25.251Z,93692.38
2022-10-16T05:43:56.794Z,93699.59
2022-10-16T05:45:28.708Z,93707.09
2022-10-16T05:47:00.397Z,93706.28
2022-10-16T05:48:32.256Z,93715.91
2022-10-16T05:50:05.682Z,93710.03
2022-10-16T05:51:37.302Z,93711.09
2022-10-16T05:53:08.928Z,93713.19
2022-10-16T05:54:40.599Z,93713.47
2022-10-16T05:56:12.851Z,93715.09
2022-10-16T05:57:44.549Z,93719.34
2022-10-16T05:59:16.419Z,93722.81
2022-10-16T06:00:54.797Z,93724.41
2022-10-16T06:02:26.487Z,93723.84
2022-10-16T06:03:58.377Z,93736.72
2022-10-16T06:05:30.066Z,93730.78
2022-10-16T06:07:01.742Z,93724.31
2022-10-16T06:08:33.784Z,93732.00
2022-10-16T06:10:05.923Z,93742.34
2022-10-16T06:11:37.707Z,93733.69
2022-10-16T06:13:09.476Z,93742.47
2022-10-16T06:14:41.697Z,93737.22
2022-10-16T06:16:13.852Z,93740.09
2022-10-16T06:17:45.620Z,93740.03
2022-10-16T06:19:18.676Z,93745.19
2022-10-16T06:20:50.360Z,93751.91
2022-10-16T06:22:22.068Z,93741.34
2022-10-16T06:23:54.310Z,93746.19
2022-10-16T06:25:25.983Z,93752.09
2022-10-16T06:26:57.702Z,93751.06
2022-10-16T06:28:29.628Z,93754.84
2022-10-16T06:30:01.295Z,93752.59
2022-10-16T06:31:35.454Z,93757.63
2022-10-16T06:33:07.178Z,93750.09
2022-10-16T06:34:43.377Z,93754.75
2022-10-16T06:36:17.096Z,93754.50
2022-10-16T06:37:48.784Z,93768.13
2022-10-16T06:39:20.452Z,93768.84
2022-10-16T06:40:52.187Z,93759.97
2022-10-16T06:42:24.314Z,93763.59
2022-10-16T06:43:56.210Z,93763.94
2022-10-16T06:45:27.820Z,93758.59
2022-10-16T06:46:59.497Z,93767.38
2022-10-16T06:48:31.385Z,93763.97
2022-10-16T06:50:03.598Z,93771.72
2022-10-16T06:51:40.455Z,93766.19
2022-10-16T06:53:14.347Z,93762.47
2022-10-16T06:54:46.191Z,93764.47
2022-10-16T06:56:24.584Z,93767.69
2022-10-16T06:57:56.305Z,93765.19
2022-10-16T06:59:27.928Z,93775.59
2022-10-16T07:00:59.765Z,93766.28
2022-10-16T07:02:31.442Z,93775.38
2022-10-16T07:04:03.565Z,93767.81
2022-10-16T07:05:41.283Z,93769.34
2022-10-16T07:07:13.368Z,93775.16
2022-10-16T07:08:45.518Z,93775.47
2022-10-16T07:10:17.332Z,93773.38
2022-10-16T07:11:49.450Z,93785.06
2022-10-16T07:13:21.229Z,93781.66
2022-10-16T07:14:53.434Z,93779.69
2022-10-16T07:16:26.482Z,93790.28
2022-10-16T07:17:58.320Z,93788.47
2022-10-16T07:19:33.431Z,93784.66
2022-10-16T07:21:10.011Z,93789.88
2022-10-16T07:22:42.260Z,93780.88
2022-10-16T07:24:15.222Z,93787.47
2022-10-16T07:25:46.966Z,93792.06
2022-10-16T07:27:25.240Z,93794.34
2022-10-16T07:28:58.504Z,93790.03
2022-10-16T07:30:30.352Z,93792.84
2022-10-16T07:32:02.869Z,93790.19
2022-10-16T07:33:34.592Z,93796.59
2022-10-16T07:35:06.609Z,93796.03
2022-10-16T07:36:38.355Z,93797.75
2022-10-16T07:38:10.492Z,93798.53
2022-10-16T07:39:42.600Z,93802.03
2022-10-16T07:41:18.353Z,93801.09
2022-10-16T07:42:50.552Z,93804.25
2022-10-16T07:44:22.285Z,93809.13
2022-10-16T07:45:54.982Z,93807.91
2022-10-16T07:47:27.091Z,93814.53
2022-10-16T07:48:59.211Z,93815.69
2022-10-16T07:50:31.369Z,93811.91
2022-10-16T07:52:03.439Z,93810.84
2022-10-16T07:53:36.465Z,93813.63
2022-10-16T07:55:09.484Z,93809.84
2022-10-16T07:56:43.814Z,93812.88
2022-10-16T07:58:15.991Z,93806.84
2022-10-16T07:59:47.962Z,93814.81
2022-10-16T08:01:19.879Z,93810.69
2022-10-16T08:02:51.613Z,93811.69
2022-10-16T08:04:23.689Z,93810.91
2022-10-16T08:05:55.578Z,93805.06
2022-10-16T08:07:27.752Z,93801.16
2022-10-16T08:09:01.296Z,93808.97
2022-10-16T08:10:33.189Z,93802.78
2022-10-16T08:12:05.484Z,93805.00
2022-10-16T08:13:37.648Z,93809.16
2022-10-16T08:15:09.853Z,93802.56
2022-10-16T08:16:41.549Z,93801.00
2022-10-16T08:18:13.694Z,93802.91
2022-10-16T08:19:45.997Z,93801.91
2022-10-16T08:21:20.486Z,93796.81
2022-10-16T08:22:53.145Z,93797.28
2022-10-16T08:24:24.892Z,93799.53
2022-10-16T08:25:56.657Z,93799.69
2022-10-16T08:27:34.810Z,93803.00
2022-10-16T08:29:06.637Z,93796.63
2022-10-16T08:30:38.430Z,93795.03
2022-10-16T08:32:10.475Z,93794.34
2022-10-16T08:33:42.665Z,93790.16
2022-10-16T08:35:14.816Z,93797.59
2022-10-16T08:36:46.345Z,93795.00
2022-10-16T08:38:18.544Z,93795.97
2022-10-16T08:39:50.288Z,93799.75
2022-10-16T08:41:25.492Z,93805.34
2022-10-16T08:43:16.427Z,93803.22
2022-10-16T08:44:54.114Z,93802.25
2022-10-16T08:46:32.311Z,93799.72
2022-10-16T08:48:25.120Z,93801.56
2022-10-16T08:49:58.273Z,93800.78
2022-10-16T08:51:33.297Z,93801.03
2022-10-16T08:53:05.194Z,93804.38
2022-10-16T08:54:41.854Z,93803.66
2022-10-16T08:56:13.812Z,93799.69
2022-10-16T08:57:46.219Z,93801.47
2022-10-16T08:59:18.353Z,93799.28
2022-10-16T09:00:56.985Z,93812.19
2022-10-16T09:02:58.279Z,93805.19
2022-10-16T09:04:36.421Z,93804.06
2022-10-16T09:06:23.372Z,93806.38
2022-10-16T09:08:13.102Z,93807.19
2022-10-16T09:09:54.118Z,93803.84
2022-10-16T09:11:41.441Z,93805.63
2022-10-16T09:13:29.916Z,93805.75
2022-10-16T09:15:20.742Z,93794.97
2022-10-16T09:17:15.976Z,93794.88
2022-10-16T09:19:00.033Z,93799.00
2022-10-16T09:20:33.340Z,93797.53
2022-10-16T09:22:12.062Z,93795.38
2022-10-16T09:23:43.785Z,93789.69
2022-10-16T09:25:20.939Z,93786.75
2022-10-16T09:26:52.876Z,93787.41
2022-10-16T09:28:24.879Z,93796.50
2022-10-16T09:29:59.649Z,93792.41
2022-10-16T09:31:31.997Z,93791.38
2022-10-16T09:33:03.765Z,93794.66
2022-10-16T09:34:36.095Z,93796.47
2022-10-16T09:36:08.002Z,93789.31
2022-10-16T09:37:39.697Z,93785.09
2022-10-16T09:39:12.805Z,93785.44
2022-10-16T09:40:44.611Z,93789.28
2022-10-16T09:42:25.349Z,93785.94
2022-10-16T09:44:00.532Z,93776.72
2022-10-16T09:45:32.264Z,93772.84
2022-10-16T09:47:12.363Z,93778.66
2022-10-16T09:48:48.881Z,93781.56
2022-10-16T09:50:23.694Z,93777.88
2022-10-16T09:52:14.181Z,93774.81
2022-10-16T09:53:47.265Z,93778.97
2022-10-16T09:55:19.151Z,93779.19
2022-10-16T09:56:53.144Z,93778.34
2022-10-16T09:58:25.708Z,93772.03
2022-10-16T09:59:57.840Z,93775.50
2022-10-16T10:01:39.886Z,93772.47
2022-10-16T10:03:12.029Z,93778.03
2022-10-16T10:04:46.040Z,93770.47
2022-10-16T10:06:27.195Z,93773.34
2022-10-16T10:08:04.196Z,93772.91
2022-10-16T10:09:38.810Z,93773.72
2022-10-16T10:11:15.269Z,93774.50
2022-10-16T10:12:47.782Z,93775.38
2022-10-16T10:14:20.910Z,93772.53
2022-10-16T10:15:52.745Z,93765.66
2022-10-16T10:17:25.062Z,93775.09
2022-10-16T10:19:00.505Z,93774.38
2022-10-16T10:20:36.479Z,93764.66
2022-10-16T10:22:21.103Z,93767.53
2022-10-16T10:23:58.647Z,93766.75
2022-10-16T10:25:33.216Z,93762.06
2022-10-16T10:27:07.155Z,93762.59
2022-10-16T10:28:50.795Z,93762.94
2022-10-16T10:30:26.641Z,93759.34
2022-10-16T10:32:07.145Z,93760.78
2022-10-16T10:33:38.856Z,93749.94
2022-10-16T10:35:15.775Z,93754.03
2022-10-16T10:36:48.971Z,93749.22
2022-10-16T10:38:28.910Z,93748.31
2022-10-16T10:40:00.805Z,93739.06
2022-10-16T10:41:48.595Z,93751.72
2022-10-16T10:43:32.773Z,93746.75
2022-10-16T10:45:20.260Z,93744.16
2022-10-16T10:46:53.242Z,93744.28
2022-10-16T10:48:32.944Z,93748.81
2022-10-16T10:50:10.286Z,93735.50
2022-10-16T10:51:45.035Z,93737.59
2022-10-16T10:53:24.158Z,93732.94
2022-10-16T10:55:05.232Z,93729.41
2022-10-16T10:56:44.809Z,93728.69
2022-10-16T10:58:36.150Z,93726.38
2022-10-16T11:00:11.792Z,93729.66
2022-10-16T11:01:55.900Z,93724.63
2022-10-16T11:03:46.699Z,93725.59
2022-10-16T11:05:18.621Z,93724.53
2022-10-16T11:06:51.765Z,93725.94
2022-10-16T11:08:25.959Z,93717.91
2022-10-16T11:10:04.564Z,93712.88
2022-10-16T11:11:37.071Z,93718.81
2022-10-16T11:13:17.537Z,93703.53
2022-10-16T11:14:56.863Z,93713.91
2022-10-16T11:16:33.321Z,93711.69
2022-10-16T11:18:08.390Z,93712.94
2022-10-16T11:19:45.371Z,93716.56
2022-10-16T11:21:17.331Z,93712.78
2022-10-16T11:22:54.210Z,93712.19
2022-10-16T11:24:31.558Z,93717.44
2022-10-16T11:26:03.741Z,93705.31
2022-10-16T11:27:37.389Z,93710.44
2022-10-16T11:29:14.030Z,93710.31
2022-10-16T11:30:47.443Z,93710.31
2022-10-16T11:32:45.355Z,93703.69
2022-10-16T11:34:18.628Z,93707.97
2022-10-16T11:35:53.153Z,93699.66
2022-10-16T11:37:34.842Z,93700.81
2022-10-16T11:39:24.679Z,93700.84
2022-10-16T11:40:58.824Z,93703.63
2022-10-16T11:42:35.433Z,93697.78
2022-10-16T11:44:16.612Z,93701.84
2022-10-16T11:45:50.803Z,93704.31
2022-10-16T11:47:57.437Z,93706.31
2022-10-16T11:49:25.927Z,93706.31
2022-10-16T11:50:58.485Z,93702.00
2022-10-16T11:52:32.714Z,93699.69
2022-10-16T11:54:16.627Z,93707.13
2022-10-16T11:55:48.311Z,93705.22
2022-10-16T11:57:28.515Z,93701.34
2022-10-16T11:59:00.529Z,93701.78
2022-10-16T12:00:42.444Z,93706.97
2022-10-16T12:02:26.836Z,93708.28
2022-10-16T12:04:07.984Z,93704.88
2022-10-16T12:06:00.444Z,93695.47
2022-10-16T12:07:34.048Z,93700.06
2022-10-16T12:09:05.640Z,93698.53
2022-10-16T12:12:28.233Z,93691.09
2022-10-16T12:14:28.537Z,93691.09
2022-10-16T12:16:06.460Z,93689.50
2022-10-16T12:17:38.671Z,93688.81
2022-10-16T12:19:14.623Z,93690.78
2022-10-16T12:20:48.503Z,93695.94
2022-10-16T12:22:20.513Z,93693.91
2022-10-16T12:23:56.254Z,93688.81
2022-10-16T12:25:29.461Z,93692.75
2022-10-16T12:27:01.359Z,93690.41
2022-10-16T12:28:34.105Z,93694.75
2022-10-16T12:30:07.323Z,93690.84
2022-10-16T12:31:49.574Z,93690.03
2022-10-16T12:33:26.965Z,93687.66
2022-10-16T12:34:58.889Z,93687.09
2022-10-16T12:36:32.315Z,93700.00
2022-10-16T12:38:07.846Z,93687.06
2022-10-16T12:39:53.154Z,93691.81
2022-10-16T12:41:34.406Z,93689.53
2022-10-16T12:43:27.384Z,93691.25
2022-10-16T12:45:01.595Z,93692.50
2022-10-16T12:46:37.148Z,93699.25
2022-10-16T12:48:19.851Z,93693.81
2022-10-16T12:49:52.847Z,93699.69
2022-10-16T12:51:35.445Z,93696.16
2022-10-16T12:53:20.475Z,93700.06
2022-10-16T12:54:52.108Z,93702.84
2022-10-16T12:56:27.669Z,93704.00
2022-10-16T12:58:08.277Z,93700.00
2022-10-16T13:23:30.865Z,93714.28
2022-10-16T13:25:17.622Z,93714.41
2022-10-16T13:26:49.346Z,93712.09
2022-10-16T13:28:22.694Z,93720.03
2022-10-16T13:29:56.786Z,93717.03
2022-10-16T13:31:29.298Z,93728.13
2022-10-16T13:33:01.235Z,93700.50
2022-10-16T13:34:33.226Z,93702.81
2022-10-16T13:36:05.583Z,93724.97
2022-10-16T13:37:37.387Z,93720.34
2022-10-16T13:39:14.218Z,93717.81
2022-10-16T13:40:56.391Z,93724.28
2022-10-16T13:42:28.659Z,93719.56
2022-10-16T13:44:00.444Z,93721.84
2022-10-16T13:45:32.215Z,93724.78
2022-10-16T13:47:04.294Z,93718.34
2022-10-16T13:48:36.494Z,93722.13
2022-10-16T13:50:12.215Z,93728.38
2022-10-16T13:51:54.805Z,93726.78
2022-10-16T13:53:26.509Z,93727.00
2022-10-16T13:55:01.071Z,93728.44
2022-10-16T13:56:34.222Z,93727.25
2022-10-16T13:58:09.187Z,93727.19
2022-10-16T13:59:41.611Z,93725.94
2022-10-16T14:01:20.619Z,93725.22
2022-10-16T14:02:53.692Z,93723.06
2022-10-16T14:04:25.474Z,93727.16
2022-10-16T14:06:00.423Z,93717.75
2022-10-16T14:07:33.024Z,93725.88
2022-10-16T14:09:10.732Z,93726.72
2022-10-16T14:10:42.257Z,93728.38
2022-10-16T14:12:13.911Z,93722.47
2022-10-16T14:13:45.885Z,93729.31
2022-10-16T14:15:18.300Z,93720.19
2022-10-16T14:16:50.302Z,93723.91
2022-10-16T14:18:23.037Z,93732.00
2022-10-16T14:19:59.490Z,93724.97
2022-10-16T14:21:34.789Z,93723.94
2022-10-16T14:23:20.037Z,93727.59
2022-10-16T14:24:51.621Z,93739.03
2022-10-16T14:26:25.090Z,93727.03
2022-10-16T14:28:15.047Z,93733.91
2022-10-16T14:29:46.743Z,93738.34
2022-10-16T14:31:21.518Z,93736.22
2022-10-16T14:32:57.262Z,93729.44
2022-10-16T14:34:29.183Z,93733.16
2022-10-16T14:36:04.139Z,93740.38
2022-10-16T14:37:35.908Z,93739.56
2022-10-16T14:39:14.932Z,93730.75
2022-10-16T14:40:48.274Z,93740.81
2022-10-16T14:42:20.758Z,93738.41
2022-10-16T14:44:02.788Z,93742.59
2022-10-16T14:45:35.643Z,93742.97
2022-10-16T14:47:18.518Z,93742.19
2022-10-16T14:48:52.600Z,93742.06
2022-10-16T14:50:24.667Z,93745.69
2022-10-16T14:51:56.631Z,93750.97
2022-10-16T14:53:28.260Z,93750.00
2022-10-16T14:55:01.834Z,93745.22
2022-10-16T14:56:44.048Z,93761.50
2022-10-16T14:58:45.492Z,93757.19
2022-10-16T15:00:19.103Z,93763.69
2022-10-16T15:01:50.682Z,93762.22
2022-10-16T15:03:23.325Z,93762.56
2022-10-16T15:04:55.673Z,93761.22
2022-10-16T15:06:27.450Z,93757.16
2022-10-16T15:07:59.112Z,93757.50
2022-10-16T15:09:30.776Z,93769.56
2022-10-16T15:11:02.449Z,93767.28
2022-10-16T15:12:34.446Z,93761.34
2022-10-16T15:14:06.301Z,93759.66
2022-10-16T15:15:38.657Z,93762.88
2022-10-16T15:17:11.581Z,93766.88
2022-10-16T15:18:43.493Z,93759.72
2022-10-16T15:20:15.471Z,93765.06
2022-10-16T15:21:47.143Z,93770.88
2022-10-16T15:23:19.819Z,93769.09
2022-10-16T15:24:51.755Z,93769.75
2022-10-16T15:26:24.185Z,93771.50
2022-10-16T15:27:55.892Z,93763.66
2022-10-16T15:29:27.594Z,93759.22
2022-10-16T15:30:59.394Z,93770.72
2022-10-16T15:32:31.565Z,93777.72
2022-10-16T15:34:05.497Z,93773.41
2022-10-16T15:35:37.113Z,93773.72
2022-10-16T15:37:09.965Z,93784.19
2022-10-16T15:38:41.864Z,93788.72
2022-10-16T15:40:14.258Z,93786.78
2022-10-16T15:41:46.558Z,93781.97
2022-10-16T15:43:18.197Z,93786.97
2022-10-16T15:44:49.752Z,93791.06
2022-10-16T15:46:22.173Z,93789.66
2022-10-16T15:47:53.791Z,93788.28
2022-10-16T15:49:25.389Z,93788.06
2022-10-16T15:50:57.065Z,93789.94
2022-10-16T15:52:29.963Z,93790.38
2022-10-16T15:54:03.134Z,93791.97
2022-10-16T15:55:35.074Z,93793.25
2022-10-16T15:57:06.652Z,93797.56
2022-10-16T15:58:38.607Z,93805.16
2022-10-16T16:00:11.618Z,93800.59
2022-10-16T16:01:43.549Z,93804.00
2022-10-16T16:03:15.314Z,93805.50
2022-10-16T16:04:46.909Z,93807.44
2022-10-16T16:06:18.712Z,93802.50
2022-10-16T16:07:50.437Z,93813.72
2022-10-16T16:09:22.063Z,93812.16
2022-10-16T16:11:00.312Z,93813.28
2022-10-16T16:12:31.947Z,93814.22
2022-10-16T16:14:05.637Z,93816.16
2022-10-16T16:15:40.213Z,93812.03
2022-10-16T16:17:12.222Z,93820.97
2022-10-16T16:18:44.153Z,93818.72
2022-10-16T16:20:15.907Z,93825.09
2022-10-16T16:21:47.874Z,93832.28
2022-10-16T16:23:20.343Z,93831.50
2022-10-16T16:24:52.346Z,93837.38
2022-10-16T16:26:27.780Z,93837.72
2022-10-16T16:27:59.530Z,93833.88
2022-10-16T16:29:31.052Z,93833.91
2022-10-16T16:31:02.983Z,93841.06
2022-10-16T16:32:35.669Z,93847.13
2022-10-16T16:34:07.536Z,93844.91
2022-10-16T16:35:39.209Z,93838.84
2022-10-16T16:37:10.902Z,93849.69
2022-10-16T16:38:42.527Z,93852.41
2022-10-16T16:40:14.293Z,93855.13
2022-10-16T16:41:48.876Z,93859.25
2022-10-16T16:43:21.451Z,93860.84
2022-10-16T16:44:53.112Z,93861.97
2022-10-16T16:46:24.864Z,93862.75
2022-10-16T16:47:56.517Z,93873.75
2022-10-16T16:49:28.241Z,93874.03
2022-10-16T16:51:20.749Z,93875.78
2022-10-16T16:52:52.857Z,93881.34
2022-10-16T16:54:24.522Z,93887.25
2022-10-16T16:55:57.361Z,93885.63
2022-10-16T16:57:30.814Z,93895.25
2022-10-16T16:59:02.686Z,93895.72
2022-10-16T17:00:34.401Z,93893.50
2022-10-16T17:02:06.270Z,93894.78
2022-10-16T17:03:38.005Z,93898.94
2022-10-16T17:05:09.924Z,93904.00
2022-10-16T17:06:42.915Z,93904.59
2022-10-16T17:08:14.723Z,93905.22
2022-10-16T17:09:46.285Z,93902.13
2022-10-16T17:11:19.488Z,93910.09
2022-10-16T17:12:51.395Z,93906.13
2022-10-16T17:14:23.344Z,93905.44
2022-10-16T17:15:55.172Z,93906.38
2022-10-16T17:17:27.152Z,93908.13
2022-10-16T17:19:02.350Z,93908.72
2022-10-16T17:20:36.723Z,93906.63
2022-10-16T17:22:08.303Z,93914.28
2022-10-16T17:23:39.979Z,93909.81
2022-10-16T17:25:11.546Z,93912.97
2022-10-16T17:26:49.388Z,93911.47
2022-10-16T17:28:21.199Z,93915.59
2022-10-16T17:29:53.435Z,93917.66
2022-10-16T17:31:26.030Z,93912.34
2022-10-16T17:32:57.593Z,93913.00
2022-10-16T17:34:29.741Z,93925.41
2022-10-16T17:36:01.407Z,93915.06
2022-10-16T17:37:33.217Z,93919.88
2022-10-16T17:39:09.179Z,93920.34
2022-10-16T17:40:41.467Z,93915.75
2022-10-16T17:42:13.665Z,93926.56
2022-10-16T17:43:45.782Z,93919.06
2022-10-16T17:45:18.150Z,93922.38
2022-10-16T17:46:51.953Z,93927.78
2022-10-16T17:48:24.294Z,93931.31
2022-10-16T17:49:57.941Z,93925.88
2022-10-16T17:51:31.108Z,93925.09
2022-10-16T17:53:03.016Z,93932.41
2022-10-16T17:54:35.051Z,93934.66
2022-10-16T17:56:10.815Z,93929.84
2022-10-16T17:57:42.582Z,93931.56
2022-10-16T17:59:14.740Z,93946.03
2022-10-16T18:00:46.775Z,93944.38
2022-10-16T18:02:18.756Z,93952.59
2022-10-16T18:03:57.183Z,93946.19
2022-10-16T18:05:28.908Z,93943.78
2022-10-16T18:07:01.025Z,93946.81
2022-10-16T18:08:32.776Z,93955.75
2022-10-16T18:10:11.649Z,93949.03
2022-10-16T18:11:44.045Z,93952.81
2022-10-16T18:13:16.637Z,93950.69
2022-10-16T18:14:48.583Z,93965.63
2022-10-16T18:16:20.355Z,93960.84
2022-10-16T18:17:52.039Z,93952.97
2022-10-16T18:19:24.300Z,93966.38
2022-10-16T18:21:01.997Z,93967.31
2022-10-16T18:22:36.121Z,93974.13
2022-10-16T18:24:07.705Z,93978.03
2022-10-16T18:25:39.448Z,93977.22
2022-10-16T18:27:11.724Z,93980.25
2022-10-16T18:28:43.542Z,93980.34
2022-10-16T18:30:15.474Z,93987.06
2022-10-16T18:31:47.108Z,93984.25
2022-10-16T18:33:18.664Z,93990.38
2022-10-16T18:34:50.402Z,93980.66
2022-10-16T18:36:23.217Z,93990.38
2022-10-16T18:37:59.083Z,93990.38
2022-10-16T18:39:30.761Z,93985.06
2022-10-16T18:41:05.201Z,93995.94
2022-10-16T18:42:37.269Z,93990.16
2022-10-16T18:44:10.081Z,93999.34
2022-10-16T18:45:41.763Z,94007.47
2022-10-16T18:47:13.634Z,94002.66
2022-10-16T18:48:45.220Z,94008.84
2022-10-16T18:50:16.948Z,94010.84
2022-10-16T18:51:48.900Z,94011.16